createdAt,value
2023-01-07T00:00:09.486Z,12.36
2023-01-07T00:02:37.813Z,12.40
2023-01-07T00:05:06.846Z,12.14
2023-01-07T00:07:35.058Z,12.57
2023-01-07T00:10:03.323Z,13.24
2023-01-07T00:12:32.871Z,12.65
2023-01-07T00:15:01.044Z,12.78
2023-01-07T00:17:29.291Z,13.16
2023-01-07T00:19:57.482Z,13.67
2023-01-07T00:22:25.728Z,13.77
2023-01-07T00:24:53.921Z,13.42
2023-01-07T00:27:22.161Z,13.39
2023-01-07T00:29:51.758Z,13.38
2023-01-07T00:32:20.418Z,13.61
2023-01-07T00:34:48.612Z,13.57
2023-01-07T00:37:33.344Z,13.56
2023-01-07T00:40:01.503Z,12.85
2023-01-07T00:42:47.438Z,12.35
2023-01-07T00:45:17.174Z,12.76
2023-01-07T00:47:45.364Z,12.83
2023-01-07T00:50:13.598Z,13.14
2023-01-07T00:52:41.805Z,13.12
2023-01-07T00:55:11.696Z,13.41
2023-01-07T00:57:39.920Z,13.48
2023-01-07T01:00:09.951Z,12.45
2023-01-07T01:02:39.805Z,12.39
2023-01-07T01:05:09.360Z,12.87
2023-01-07T01:07:38.415Z,12.91
2023-01-07T01:10:09.727Z,12.27
2023-01-07T01:12:38.610Z,12.40
2023-01-07T01:15:10.485Z,11.76
2023-01-07T01:17:40.732Z,12.18
2023-01-07T01:20:13.059Z,12.29
2023-01-07T01:22:41.460Z,12.46
2023-01-07T01:25:10.808Z,12.83
2023-01-07T01:27:39.072Z,12.76
2023-01-07T01:30:09.516Z,12.23
2023-01-07T01:32:39.253Z,12.67
2023-01-07T01:35:08.555Z,12.61
2023-01-07T01:37:36.884Z,12.44
2023-01-07T01:40:07.282Z,12.67
2023-01-07T01:42:35.867Z,11.93
2023-01-07T01:45:06.181Z,11.76
2023-01-07T01:47:42.680Z,12.35
2023-01-07T01:50:17.996Z,12.08
2023-01-07T01:52:51.796Z,12.35
2023-01-07T01:55:24.720Z,12.69
2023-01-07T01:57:57.908Z,12.54
2023-01-07T02:00:26.263Z,12.50
2023-01-07T02:02:59.775Z,11.72
2023-01-07T02:05:34.773Z,12.20
2023-01-07T02:08:03.037Z,12.02
2023-01-07T02:10:33.182Z,12.20
2023-01-07T02:13:27.499Z,13.12
2023-01-07T02:16:02.667Z,13.23
2023-01-07T02:18:56.585Z,13.05
2023-01-07T02:21:39.838Z,12.64
2023-01-07T02:24:51.073Z,12.54
2023-01-07T02:27:58.893Z,13.00
2023-01-07T02:31:02.638Z,12.80
2023-01-07T02:33:52.219Z,12.15
2023-01-07T02:36:51.107Z,12.77
2023-01-07T02:39:37.746Z,12.52
2023-01-07T02:42:14.578Z,12.66
2023-01-07T02:44:51.403Z,12.70
2023-01-07T02:47:28.543Z,12.27
2023-01-07T02:49:58.269Z,11.76
2023-01-07T02:52:30.157Z,12.33
2023-01-07T02:55:04.199Z,12.40
2023-01-07T02:58:28.328Z,12.39
2023-01-07T03:01:25.892Z,12.00
2023-01-07T03:04:13.882Z,12.33
2023-01-07T03:07:01.708Z,11.90
2023-01-07T03:09:36.681Z,11.85
2023-01-07T03:12:14.493Z,12.11
2023-01-07T03:14:49.778Z,11.86
2023-01-07T03:17:22.338Z,11.91
2023-01-07T03:19:55.730Z,11.47
2023-01-07T03:22:29.294Z,11.61
2023-01-07T03:24:59.046Z,12.28
2023-01-07T03:27:29.762Z,12.73
2023-01-07T03:29:58.294Z,12.63
2023-01-07T03:32:31.706Z,12.35
2023-01-07T03:35:00.137Z,12.19
2023-01-07T03:37:31.314Z,11.75
2023-01-07T03:40:00.061Z,12.16
2023-01-07T03:42:40.668Z,11.21
2023-01-07T03:45:12.623Z,11.21
2023-01-07T03:47:44.510Z,11.34
2023-01-07T03:50:12.931Z,11.46
2023-01-07T03:52:42.574Z,10.97
2023-01-07T03:55:12.441Z,10.84
2023-01-07T03:57:40.702Z,11.26
2023-01-07T04:00:13.014Z,11.11
2023-01-07T04:02:41.324Z,10.97
2023-01-07T04:05:10.702Z,10.95
2023-01-07T04:07:39.266Z,11.34
2023-01-07T04:10:10.432Z,12.08
2023-01-07T04:12:38.670Z,11.35
2023-01-07T04:15:08.137Z,11.93
2023-01-07T04:17:36.326Z,11.70
2023-01-07T04:20:07.795Z,12.41
2023-01-07T04:22:36.074Z,11.51
2023-01-07T04:25:04.480Z,11.41
2023-01-07T04:27:34.311Z,12.13
2023-01-07T04:30:02.496Z,11.14
2023-01-07T04:32:30.686Z,11.32
2023-01-07T04:34:58.870Z,11.65
2023-01-07T04:37:27.074Z,11.22
2023-01-07T04:39:55.228Z,11.51
2023-01-07T04:42:23.388Z,11.22
2023-01-07T04:44:53.448Z,11.27
2023-01-07T04:47:21.681Z,11.80
2023-01-07T04:49:49.829Z,11.20
2023-01-07T04:52:18.020Z,11.71
2023-01-07T04:54:46.195Z,11.25
2023-01-07T04:57:14.407Z,11.41
2023-01-07T04:59:42.619Z,11.49
2023-01-07T05:02:12.284Z,11.74
2023-01-07T05:04:40.605Z,12.06
2023-01-07T05:07:08.949Z,11.56
2023-01-07T05:09:37.184Z,12.01
2023-01-07T05:12:06.073Z,12.20
2023-01-07T05:14:34.288Z,12.17
2023-01-07T05:17:02.683Z,11.67
2023-01-07T05:19:32.434Z,11.15
2023-01-07T05:22:01.082Z,11.96
2023-01-07T05:24:29.310Z,11.78
2023-01-07T05:26:57.917Z,11.86
2023-01-07T05:29:26.109Z,12.08
2023-01-07T05:31:54.381Z,12.05
2023-01-07T05:34:22.553Z,12.63
2023-01-07T05:36:52.112Z,12.11
2023-01-07T05:39:20.315Z,11.72
2023-01-07T05:41:48.769Z,11.85
2023-01-07T05:44:17.046Z,11.67
2023-01-07T05:46:45.944Z,12.20
2023-01-07T05:49:14.145Z,11.82
2023-01-07T05:51:42.345Z,11.57
2023-01-07T05:54:12.265Z,11.61
2023-01-07T05:56:40.477Z,12.09
2023-01-07T05:59:08.689Z,11.64
2023-01-07T06:01:36.915Z,11.58
2023-01-07T06:04:05.185Z,12.09
2023-01-07T06:06:33.393Z,11.65
2023-01-07T06:09:01.548Z,11.62
2023-01-07T06:11:31.128Z,11.86
2023-01-07T06:13:59.296Z,11.96
2023-01-07T06:16:27.486Z,12.57
2023-01-07T06:18:55.665Z,11.72
2023-01-07T06:21:23.908Z,11.53
2023-01-07T06:23:52.103Z,11.92
2023-01-07T06:26:20.554Z,11.77
2023-01-07T06:28:50.103Z,11.69
2023-01-07T06:31:18.405Z,11.96
2023-01-07T06:33:46.711Z,12.00
2023-01-07T06:36:14.923Z,12.30
2023-01-07T06:38:43.120Z,12.37
2023-01-07T06:41:11.361Z,12.70
2023-01-07T06:43:39.522Z,11.37
2023-01-07T06:46:09.411Z,11.35
2023-01-07T06:48:37.640Z,11.73
2023-01-07T06:51:06.139Z,12.07
2023-01-07T06:53:34.388Z,12.16
2023-01-07T06:56:02.656Z,12.18
2023-01-07T06:58:30.922Z,12.39
2023-01-07T07:01:03.898Z,12.26
2023-01-07T07:03:33.652Z,11.96
2023-01-07T07:06:02.098Z,12.13
2023-01-07T07:08:30.344Z,11.00
2023-01-07T07:10:58.569Z,12.08
2023-01-07T07:13:26.845Z,12.12
2023-01-07T07:15:55.133Z,11.48
2023-01-07T07:18:23.362Z,11.47
2023-01-07T07:20:52.934Z,11.84
2023-01-07T07:23:21.201Z,11.27
2023-01-07T07:25:49.380Z,11.89
2023-01-07T07:28:18.212Z,11.74
2023-01-07T07:30:47.998Z,12.02
2023-01-07T07:33:19.357Z,11.39
2023-01-07T07:35:48.346Z,11.40
2023-01-07T07:38:19.121Z,12.02
2023-01-07T07:40:47.524Z,11.53
2023-01-07T07:43:16.567Z,11.34
2023-01-07T07:45:45.764Z,12.07
2023-01-07T07:48:17.527Z,12.14
2023-01-07T07:50:45.852Z,11.55
2023-01-07T07:53:15.197Z,11.39
2023-01-07T07:55:44.823Z,11.63
2023-01-07T07:58:13.049Z,11.60
2023-01-07T08:00:41.378Z,11.89
2023-01-07T08:03:09.855Z,12.34
2023-01-07T08:05:42.045Z,11.94
2023-01-07T08:08:11.552Z,11.30
2023-01-07T08:10:40.404Z,12.17
2023-01-07T08:13:10.898Z,11.78
2023-01-07T08:15:39.418Z,11.74
2023-01-07T08:18:11.161Z,11.56
2023-01-07T08:20:40.863Z,11.41
2023-01-07T08:23:09.984Z,11.91
2023-01-07T08:25:38.241Z,11.54
2023-01-07T08:28:06.826Z,11.20
2023-01-07T08:30:36.387Z,11.42
2023-01-07T08:33:05.728Z,11.01
2023-01-07T08:35:34.459Z,11.27
2023-01-07T08:38:04.722Z,11.16
2023-01-07T08:40:33.515Z,11.50
2023-01-07T08:43:02.964Z,11.54
2023-01-07T08:45:32.038Z,11.17
2023-01-07T08:48:01.628Z,10.98
2023-01-07T08:50:32.272Z,11.94
2023-01-07T08:53:01.040Z,11.71
2023-01-07T08:55:29.272Z,12.06
2023-01-07T08:57:57.637Z,11.69
2023-01-07T09:00:26.598Z,11.64
2023-01-07T09:02:54.813Z,10.84
2023-01-07T09:05:24.934Z,11.30
2023-01-07T09:07:54.380Z,11.51
2023-01-07T09:10:22.969Z,11.48
2023-01-07T09:12:51.520Z,11.11
2023-01-07T09:15:19.897Z,11.35
2023-01-07T09:17:48.196Z,11.34
2023-01-07T09:20:16.577Z,11.06
2023-01-07T09:22:46.153Z,11.98
2023-01-07T09:25:14.535Z,10.97
2023-01-07T09:27:43.443Z,11.64
2023-01-07T09:30:13.069Z,11.15
2023-01-07T09:32:41.283Z,11.13
2023-01-07T09:35:10.606Z,10.72
2023-01-07T09:37:39.217Z,11.04
2023-01-07T09:40:19.979Z,11.26
2023-01-07T09:42:57.945Z,11.49
2023-01-07T09:45:30.835Z,11.07
2023-01-07T09:48:03.332Z,11.30
2023-01-07T09:50:48.274Z,11.23
2023-01-07T09:53:20.940Z,11.09
2023-01-07T09:56:10.763Z,11.89
2023-01-07T09:58:43.996Z,12.05
2023-01-07T10:01:27.157Z,11.68
2023-01-07T10:04:20.061Z,11.60
2023-01-07T10:06:57.992Z,12.18
2023-01-07T10:09:38.748Z,12.30
2023-01-07T10:12:17.901Z,12.13
2023-01-07T10:15:10.294Z,11.99
2023-01-07T10:17:56.877Z,11.85
2023-01-07T10:20:36.049Z,12.13
2023-01-07T10:23:10.850Z,13.08
2023-01-07T10:25:45.553Z,13.34
2023-01-07T10:28:23.194Z,12.61
2023-01-07T10:30:52.991Z,12.09
2023-01-07T10:33:25.405Z,12.21
2023-01-07T10:36:05.342Z,11.95
2023-01-07T10:38:38.428Z,11.80
2023-01-07T10:41:14.344Z,11.85
2023-01-07T10:44:06.412Z,11.90
2023-01-07T10:46:50.180Z,12.33
2023-01-07T10:49:39.073Z,12.41
2023-01-07T10:52:26.179Z,12.18
2023-01-07T10:55:18.306Z,12.08
2023-01-07T10:57:48.821Z,11.79
2023-01-07T11:00:20.461Z,12.18
2023-01-07T11:02:54.383Z,12.14
2023-01-07T11:05:25.004Z,11.63
2023-01-07T11:07:58.005Z,11.61
2023-01-07T11:10:30.518Z,11.91
2023-01-07T11:13:03.062Z,11.69
2023-01-07T11:15:37.351Z,11.83
2023-01-07T11:18:12.627Z,11.93
2023-01-07T11:20:49.931Z,12.25
2023-01-07T11:23:38.900Z,11.69
2023-01-07T11:26:23.890Z,12.03
2023-01-07T11:28:55.138Z,12.27
2023-01-07T11:31:45.199Z,12.03
2023-01-07T11:34:23.317Z,11.78
2023-01-07T11:36:52.296Z,11.89
2023-01-07T11:39:23.400Z,11.93
2023-01-07T11:41:58.323Z,11.90
2023-01-07T11:44:27.697Z,11.87
2023-01-07T11:46:57.403Z,11.82
2023-01-07T11:49:29.783Z,11.78
2023-01-07T11:51:59.608Z,12.45
2023-01-07T11:54:31.252Z,12.03
2023-01-07T11:57:14.916Z,11.78
2023-01-07T11:59:43.085Z,11.77
2023-01-07T12:02:28.141Z,11.93
2023-01-07T12:05:19.377Z,11.90
2023-01-07T12:07:49.328Z,11.65
2023-01-07T12:10:34.234Z,11.92
2023-01-07T12:13:06.441Z,11.65
2023-01-07T12:15:40.335Z,11.48
2023-01-07T12:19:01.721Z,11.60
2023-01-07T12:21:48.088Z,11.61
2023-01-07T12:25:17.015Z,11.76
2023-01-07T12:27:56.605Z,11.77
2023-01-07T12:30:57.132Z,11.59
2023-01-07T12:33:47.901Z,11.69
2023-01-07T12:36:24.840Z,12.10
2023-01-07T12:38:59.664Z,11.79
2023-01-07T12:41:33.257Z,11.72
2023-01-07T12:44:07.377Z,11.69
2023-01-07T12:46:41.513Z,11.57
2023-01-07T12:49:18.143Z,11.80
2023-01-07T12:51:55.240Z,11.75
2023-01-07T12:54:39.583Z,11.93
2023-01-07T12:57:17.119Z,11.63
2023-01-07T12:59:51.845Z,11.65
2023-01-07T13:02:31.295Z,11.73
2023-01-07T13:05:11.744Z,11.90
2023-01-07T13:07:52.444Z,11.75
2023-01-07T13:10:27.637Z,11.77
2023-01-07T13:13:02.377Z,11.56
2023-01-07T13:15:33.766Z,12.11
2023-01-07T13:18:14.674Z,11.85
2023-01-07T13:20:53.887Z,11.85
2023-01-07T13:23:27.411Z,11.91
2023-01-07T13:26:16.764Z,11.81
2023-01-07T13:29:10.501Z,11.96
2023-01-07T13:32:11.389Z,11.60
2023-01-07T13:34:55.821Z,11.68
2023-01-07T13:37:46.805Z,12.00
2023-01-07T13:40:58.219Z,11.61
2023-01-07T13:43:55.486Z,11.86
2023-01-07T13:46:31.938Z,12.25
2023-01-07T13:49:00.340Z,12.18
2023-01-07T13:51:32.399Z,11.93
2023-01-07T13:54:00.867Z,11.94
2023-01-07T13:56:46.827Z,12.04
2023-01-07T13:59:32.547Z,11.97
2023-01-07T14:02:22.133Z,12.10
2023-01-07T14:05:04.498Z,12.43
2023-01-07T14:07:44.264Z,12.02
2023-01-07T14:10:24.380Z,12.00
2023-01-07T14:13:29.174Z,11.94
2023-01-07T14:16:12.359Z,11.78
2023-01-07T14:19:04.195Z,12.06
2023-01-07T14:22:04.269Z,12.45
2023-01-07T14:25:14.326Z,12.18
2023-01-07T14:27:57.753Z,11.51
2023-01-07T14:30:31.946Z,12.20
2023-01-07T14:33:04.105Z,11.58
2023-01-07T14:35:35.884Z,11.55
2023-01-07T14:39:01.237Z,11.64
2023-01-07T14:41:29.420Z,11.25
2023-01-07T14:44:30.345Z,11.43
2023-01-07T14:46:58.644Z,11.56
2023-01-07T14:50:10.291Z,11.57
2023-01-07T14:53:22.616Z,11.64
2023-01-07T14:56:20.616Z,11.57
2023-01-07T14:59:12.272Z,11.35
2023-01-07T15:02:09.868Z,11.25
2023-01-07T15:05:29.449Z,11.41
2023-01-07T15:08:16.073Z,11.24
2023-01-07T15:11:03.979Z,11.39
2023-01-07T15:13:57.461Z,11.17
2023-01-07T15:16:26.513Z,11.06
2023-01-07T15:18:55.955Z,11.16
2023-01-07T15:21:39.476Z,11.19
2023-01-07T15:24:20.478Z,11.37
2023-01-07T15:26:59.057Z,11.19
2023-01-07T15:29:36.259Z,11.01
2023-01-07T15:32:13.511Z,10.92
2023-01-07T15:34:42.029Z,11.02
2023-01-07T15:37:15.129Z,11.04
2023-01-07T15:39:50.267Z,11.29
2023-01-07T15:42:29.086Z,10.96
2023-01-07T15:45:00.929Z,10.83
2023-01-07T15:47:39.352Z,10.44
2023-01-07T15:50:30.644Z,10.56
2023-01-07T15:53:01.039Z,10.98
2023-01-07T15:55:34.248Z,10.48
2023-01-07T15:58:06.436Z,10.99
2023-01-07T16:00:37.345Z,11.03
2023-01-07T16:03:06.157Z,11.17
2023-01-07T16:05:38.076Z,11.15
2023-01-07T16:08:07.067Z,11.37
2023-01-07T16:10:36.471Z,11.02
2023-01-07T16:13:07.921Z,10.85
2023-01-07T16:15:41.283Z,10.74
2023-01-07T16:18:19.907Z,10.73
2023-01-07T16:20:56.380Z,10.78
2023-01-07T16:23:27.844Z,10.55
2023-01-07T16:26:03.355Z,10.52
2023-01-07T16:28:35.920Z,10.54
2023-01-07T16:31:10.156Z,10.87
2023-01-07T16:33:39.455Z,11.02
2023-01-07T16:36:15.169Z,11.18
2023-01-07T16:38:44.856Z,11.23
2023-01-07T16:41:21.465Z,10.64
2023-01-07T16:43:52.484Z,10.62
2023-01-07T16:46:27.646Z,10.68
2023-01-07T16:49:28.037Z,10.68
2023-01-07T16:52:06.752Z,10.50
2023-01-07T16:54:37.348Z,10.49
2023-01-07T16:57:08.367Z,10.58
2023-01-07T16:59:42.393Z,10.85
2023-01-07T17:02:31.942Z,10.67
2023-01-07T17:05:18.567Z,10.67
2023-01-07T17:07:49.639Z,10.19
2023-01-07T17:10:26.833Z,10.32
2023-01-07T17:13:01.841Z,10.45
2023-01-07T17:15:39.337Z,10.50
2023-01-07T17:18:30.097Z,10.49
2023-01-07T17:21:00.487Z,10.10
2023-01-07T17:23:49.687Z,11.00
2023-01-07T17:26:24.309Z,10.27
2023-01-07T17:28:55.925Z,10.98
2023-01-07T17:31:25.168Z,10.72
2023-01-07T17:33:55.804Z,10.27
2023-01-07T17:36:26.660Z,10.75
2023-01-07T17:38:55.066Z,10.72
2023-01-07T17:41:42.525Z,10.53
2023-01-07T17:44:13.005Z,10.44
2023-01-07T17:46:42.324Z,10.48
2023-01-07T17:49:12.730Z,10.27
2023-01-07T17:51:43.181Z,10.76
2023-01-07T17:54:20.188Z,11.15
2023-01-07T17:56:49.269Z,10.56
2023-01-07T17:59:22.001Z,10.74
2023-01-07T18:01:51.796Z,10.75
2023-01-07T18:04:21.548Z,10.74
2023-01-07T18:06:49.811Z,10.60
2023-01-07T18:09:18.031Z,10.80
2023-01-07T18:12:04.620Z,10.99
2023-01-07T18:14:32.908Z,10.85
2023-01-07T18:17:01.263Z,10.80
2023-01-07T18:19:30.805Z,10.78
2023-01-07T18:21:59.033Z,10.55
2023-01-07T18:24:27.248Z,10.91
2023-01-07T18:26:56.643Z,10.52
2023-01-07T18:29:24.993Z,10.41
2023-01-07T18:31:53.305Z,10.82
2023-01-07T18:34:21.705Z,10.40
2023-01-07T18:36:51.276Z,10.75
2023-01-07T18:39:20.516Z,10.63
2023-01-07T18:41:50.303Z,10.41
2023-01-07T18:44:19.167Z,11.11
2023-01-07T18:46:47.527Z,10.67
2023-01-07T18:49:16.189Z,10.87
2023-01-07T18:51:46.311Z,10.44
2023-01-07T18:54:16.142Z,10.77
2023-01-07T18:56:45.793Z,10.83
2023-01-07T18:59:14.416Z,10.56
2023-01-07T19:01:43.080Z,10.32
2023-01-07T19:04:11.448Z,10.74
2023-01-07T19:06:39.731Z,10.31
2023-01-07T19:09:07.917Z,10.88
2023-01-07T19:11:38.386Z,10.34
2023-01-07T19:14:06.687Z,10.59
2023-01-07T19:16:35.052Z,10.62
2023-01-07T19:19:03.891Z,10.76
2023-01-07T19:21:32.130Z,10.53
2023-01-07T19:24:03.672Z,10.72
2023-01-07T19:26:33.764Z,11.14
2023-01-07T19:29:03.432Z,10.66
2023-01-07T19:31:31.780Z,10.92
2023-01-07T19:34:00.012Z,10.63
2023-01-07T19:36:28.227Z,10.52
2023-01-07T19:38:56.638Z,10.84
2023-01-07T19:41:25.304Z,10.83
2023-01-07T19:43:59.350Z,10.85
2023-01-07T19:46:29.469Z,10.71
2023-01-07T19:48:57.650Z,10.87
2023-01-07T19:51:25.857Z,10.55
2023-01-07T19:53:54.097Z,11.12
2023-01-07T19:56:22.317Z,10.68
2023-01-07T19:58:54.738Z,10.65
2023-01-07T20:01:26.461Z,11.06
2023-01-07T20:03:58.232Z,10.62
2023-01-07T20:06:29.472Z,10.75
2023-01-07T20:08:59.286Z,10.65
2023-01-07T20:11:27.500Z,10.57
2023-01-07T20:13:55.718Z,10.61
2023-01-07T20:16:25.288Z,10.83
2023-01-07T20:18:56.348Z,10.69
2023-01-07T20:21:26.681Z,10.80
2023-01-07T20:23:55.343Z,10.14
2023-01-07T20:26:27.369Z,10.05
2023-01-07T20:28:56.667Z,9.89
2023-01-07T20:31:27.478Z,10.17
2023-01-07T20:33:57.633Z,9.79
2023-01-07T20:36:28.953Z,10.18
2023-01-07T20:38:57.364Z,10.00
2023-01-07T20:41:27.822Z,9.96
2023-01-07T20:43:58.156Z,9.89
2023-01-07T20:46:28.391Z,10.00
2023-01-07T20:48:59.521Z,10.23
2023-01-07T20:51:27.897Z,10.20
2023-01-07T20:53:56.242Z,10.36
2023-01-07T20:56:26.191Z,10.44
2023-01-07T20:58:57.328Z,10.31
2023-01-07T21:01:25.800Z,10.60
2023-01-07T21:03:54.146Z,10.38
2023-01-07T21:06:24.453Z,10.04
2023-01-07T21:08:52.678Z,10.32
2023-01-07T21:11:23.896Z,10.20
2023-01-07T21:13:56.043Z,10.44
2023-01-07T21:16:25.384Z,10.39
2023-01-07T21:18:53.777Z,10.38
2023-01-07T21:21:25.672Z,10.92
2023-01-07T21:23:54.543Z,10.54
2023-01-07T21:26:23.807Z,10.82
2023-01-07T21:28:55.883Z,10.82
2023-01-07T21:31:25.067Z,10.47
2023-01-07T21:33:56.975Z,10.36
2023-01-07T21:36:28.842Z,10.72
2023-01-07T21:38:59.507Z,11.22
2023-01-07T21:41:29.581Z,10.78
2023-01-07T21:43:57.877Z,11.11
2023-01-07T21:46:26.267Z,10.95
2023-01-07T21:48:55.801Z,11.10
2023-01-07T21:51:28.303Z,10.65
2023-01-07T21:53:58.424Z,10.92
2023-01-07T21:56:31.310Z,10.74
2023-01-07T21:59:00.318Z,10.80
2023-01-07T22:01:29.359Z,10.67
2023-01-07T22:03:59.316Z,11.38
2023-01-07T22:06:31.970Z,11.32
2023-01-07T22:09:03.397Z,10.98
2023-01-07T22:11:31.930Z,10.59
2023-01-07T22:14:01.372Z,10.89
2023-01-07T22:16:32.051Z,10.90
2023-01-07T22:19:01.385Z,10.71
2023-01-07T22:21:31.790Z,10.67
2023-01-07T22:24:00.208Z,10.78
2023-01-07T22:26:28.413Z,11.30
2023-01-07T22:28:59.487Z,11.19
2023-01-07T22:31:31.791Z,11.16
2023-01-07T22:34:00.571Z,10.69
2023-01-07T22:36:37.567Z,11.36
2023-01-07T22:39:14.078Z,11.26
2023-01-07T22:41:42.783Z,11.26
2023-01-07T22:44:15.743Z,11.59
2023-01-07T22:46:46.093Z,11.49
2023-01-07T22:49:14.905Z,11.45
2023-01-07T22:51:48.866Z,11.07
2023-01-07T22:54:18.525Z,11.65
2023-01-07T22:56:47.563Z,11.62
2023-01-07T22:59:16.083Z,11.53
2023-01-07T23:01:44.638Z,11.32
2023-01-07T23:04:13.182Z,11.07
2023-01-07T23:06:41.466Z,10.80
2023-01-07T23:09:11.142Z,10.98
2023-01-07T23:11:51.880Z,10.89
2023-01-07T23:14:23.064Z,10.67
2023-01-07T23:16:52.792Z,10.34
2023-01-07T23:19:22.461Z,10.96
2023-01-07T23:21:52.912Z,11.10
2023-01-07T23:24:23.839Z,10.96
2023-01-07T23:26:54.441Z,10.99
2023-01-07T23:29:23.337Z,10.58
2023-01-07T23:31:52.170Z,11.42
2023-01-07T23:34:20.626Z,11.18
2023-01-07T23:36:49.205Z,11.49
2023-01-07T23:39:17.723Z,11.06
2023-01-07T23:41:47.668Z,11.08
2023-01-07T23:44:17.390Z,10.88
2023-01-07T23:46:45.915Z,11.19
2023-01-07T23:49:14.429Z,11.19
2023-01-07T23:51:42.933Z,11.50
2023-01-07T23:54:11.766Z,11.45
2023-01-07T23:59:19.636Z,10.73
